createdAt,value
2019-05-29T00:00:50.928Z,96787.55
2019-05-29T00:01:54.653Z,96787.77
2019-05-29T00:02:58.891Z,96790.30
2019-05-29T00:04:02.561Z,96790.69
2019-05-29T00:05:08.263Z,96797.34
2019-05-29T00:06:12.412Z,96789.16
2019-05-29T00:07:17.059Z,96795.42
2019-05-29T00:08:20.707Z,96797.56
2019-05-29T00:09:24.981Z,96802.25
2019-05-29T00:10:28.635Z,96801.08
2019-05-29T00:11:32.795Z,96802.85
2019-05-29T00:12:36.448Z,96798.18
2019-05-29T00:13:40.972Z,96801.32
2019-05-29T00:14:44.634Z,96793.54
2019-05-29T00:15:48.869Z,96796.06
2019-05-29T00:16:52.432Z,96794.51
2019-05-29T00:17:56.648Z,96788.48
2019-05-29T00:19:00.664Z,96795.87
2019-05-29T00:20:06.285Z,96793.73
2019-05-29T00:21:11.527Z,96793.54
2019-05-29T00:22:16.146Z,96792.59
2019-05-29T00:23:20.164Z,96794.92
2019-05-29T00:24:25.238Z,96795.92
2019-05-29T00:25:28.955Z,96791.83
2019-05-29T00:26:33.189Z,96796.70
2019-05-29T00:27:36.838Z,96795.92
2019-05-29T00:28:41.149Z,96795.92
2019-05-29T00:29:44.710Z,96792.23
2019-05-29T00:30:48.971Z,96790.69
2019-05-29T00:31:52.627Z,96796.71
2019-05-29T00:32:56.845Z,96794.77
2019-05-29T00:34:00.867Z,96793.20
2019-05-29T00:35:08.348Z,96794.02
2019-05-29T00:36:12.386Z,96792.06
2019-05-29T00:37:16.757Z,96796.34
2019-05-29T00:38:20.344Z,96794.38
2019-05-29T00:39:24.869Z,96796.93
2019-05-29T00:40:28.513Z,96798.50
2019-05-29T00:41:32.770Z,96806.87
2019-05-29T00:42:36.399Z,96806.11
2019-05-29T00:43:40.585Z,96802.61
2019-05-29T00:44:44.181Z,96805.72
2019-05-29T00:45:48.407Z,96804.76
2019-05-29T00:46:52.028Z,96803.39
2019-05-29T00:47:56.165Z,96808.64
2019-05-29T00:48:59.842Z,96808.05
2019-05-29T00:50:05.057Z,96808.84
2019-05-29T00:51:08.960Z,96808.67
2019-05-29T00:52:14.302Z,96801.48
2019-05-29T00:53:18.408Z,96801.30
2019-05-29T00:54:22.691Z,96803.84
2019-05-29T00:55:26.313Z,96806.36
2019-05-29T00:56:30.267Z,96803.23
2019-05-29T00:57:33.915Z,96803.07
2019-05-29T00:58:41.325Z,96808.68
2019-05-29T00:59:43.535Z,96810.44
2019-05-29T01:00:47.755Z,96802.84
2019-05-29T01:01:51.400Z,96809.08
2019-05-29T01:02:55.683Z,96811.40
2019-05-29T01:03:59.313Z,96805.00
2019-05-29T01:05:03.788Z,96808.31
2019-05-29T01:06:07.260Z,96809.88
2019-05-29T01:07:12.274Z,96812.19
2019-05-29T01:08:16.487Z,96809.66
2019-05-29T01:09:20.866Z,96814.11
2019-05-29T01:10:24.601Z,96814.33
2019-05-29T01:11:28.720Z,96814.14
2019-05-29T01:12:32.346Z,96814.90
2019-05-29T01:13:36.558Z,96814.14
2019-05-29T01:14:49.641Z,96811.20
2019-05-29T01:15:46.114Z,96813.92
2019-05-29T01:16:50.098Z,96812.00
2019-05-29T01:17:54.340Z,96809.86
2019-05-29T01:18:59.831Z,96810.81
2019-05-29T01:20:04.342Z,96809.66
2019-05-29T01:21:08.033Z,96815.29
2019-05-29T01:22:12.332Z,96819.37
2019-05-29T01:23:16.272Z,96812.38
2019-05-29T01:24:20.698Z,96815.29
2019-05-29T01:25:24.361Z,96821.31
2019-05-29T01:26:28.615Z,96820.55
2019-05-29T01:27:32.269Z,96821.11
2019-05-29T01:28:36.490Z,96824.41
2019-05-29T01:29:40.073Z,96827.53
2019-05-29T01:30:44.302Z,96827.13
2019-05-29T01:31:47.973Z,96827.92
2019-05-29T01:32:52.213Z,96827.34
2019-05-29T01:33:55.843Z,96824.63
2019-05-29T01:35:00.061Z,96825.41
2019-05-29T01:36:03.733Z,96831.22
2019-05-29T01:37:07.924Z,96830.84
2019-05-29T01:38:11.498Z,96833.36
2019-05-29T01:39:15.648Z,96830.44
2019-05-29T01:40:24.750Z,96826.36
2019-05-29T01:41:25.389Z,96827.92
2019-05-29T01:42:29.082Z,96830.64
2019-05-29T01:43:33.317Z,96830.84
2019-05-29T01:44:36.951Z,96826.77
2019-05-29T01:45:41.050Z,96830.84
2019-05-29T01:46:44.707Z,96833.36
2019-05-29T01:47:48.979Z,96831.02
2019-05-29T01:48:52.624Z,96830.23
2019-05-29T01:49:56.806Z,96836.08
2019-05-29T01:51:00.452Z,96835.30
2019-05-29T01:52:04.684Z,96834.14
2019-05-29T01:53:08.375Z,96839.95
2019-05-29T01:54:12.626Z,96838.79
2019-05-29T01:55:17.596Z,96836.47
2019-05-29T01:56:22.080Z,96845.00
2019-05-29T01:57:25.739Z,96840.14
2019-05-29T01:58:29.997Z,96846.94
2019-05-29T01:59:33.654Z,96842.66
2019-05-29T02:00:37.896Z,96844.42
2019-05-29T02:01:41.788Z,96840.92
2019-05-29T02:02:46.357Z,96842.48
2019-05-29T02:03:49.999Z,96847.34
2019-05-29T02:04:54.217Z,96843.08
2019-05-29T02:05:57.885Z,96846.95
2019-05-29T02:07:02.103Z,96847.33
2019-05-29T02:08:05.752Z,96847.73
2019-05-29T02:09:10.038Z,96845.20
2019-05-29T02:10:13.771Z,96843.84
2019-05-29T02:11:19.112Z,96843.66
2019-05-29T02:12:22.833Z,96844.61
2019-05-29T02:13:27.576Z,96838.40
2019-05-29T02:14:31.361Z,96845.59
2019-05-29T02:15:35.962Z,96840.93
2019-05-29T02:16:39.620Z,96839.36
2019-05-29T02:17:43.820Z,96843.46
2019-05-29T02:18:47.408Z,96847.54
2019-05-29T02:19:52.174Z,96851.59
2019-05-29T02:20:55.735Z,96844.03
2019-05-29T02:21:59.958Z,96839.57
2019-05-29T02:23:03.963Z,96851.42
2019-05-29T02:24:08.185Z,96845.78
2019-05-29T02:25:15.719Z,96846.94
2019-05-29T02:26:18.178Z,96849.48
2019-05-29T02:27:21.855Z,96846.18
2019-05-29T02:28:26.815Z,96846.37
2019-05-29T02:29:30.648Z,96845.79
2019-05-29T02:30:34.919Z,96846.55
2019-05-29T02:31:38.570Z,96850.26
2019-05-29T02:32:42.782Z,96844.42
2019-05-29T02:33:46.422Z,96846.56
2019-05-29T02:34:50.637Z,96853.17
2019-05-29T02:35:54.317Z,96849.27
2019-05-29T02:36:58.532Z,96844.61
2019-05-29T02:38:02.129Z,96854.91
2019-05-29T02:39:08.454Z,96855.11
2019-05-29T02:40:12.512Z,96855.50
2019-05-29T02:41:16.611Z,96855.50
2019-05-29T02:42:20.998Z,96855.89
2019-05-29T02:43:27.214Z,96852.78
2019-05-29T02:44:30.716Z,96859.78
2019-05-29T02:45:53.023Z,96855.48
2019-05-29T02:46:40.537Z,96858.42
2019-05-29T02:47:44.755Z,96852.80
2019-05-29T02:48:48.407Z,96857.66
2019-05-29T02:49:52.619Z,96857.27
2019-05-29T02:50:56.542Z,96854.95
2019-05-29T02:52:00.849Z,96855.53
2019-05-29T02:53:04.481Z,96860.95
2019-05-29T02:54:08.699Z,96861.75
2019-05-29T02:55:12.700Z,96864.08
2019-05-29T02:56:17.296Z,96856.48
2019-05-29T02:57:22.450Z,96858.61
2019-05-29T02:58:27.777Z,96864.06
2019-05-29T02:59:32.560Z,96862.50
2019-05-29T03:00:54.175Z,96862.70
2019-05-29T03:01:57.837Z,96859.59
2019-05-29T03:03:02.093Z,96866.60
2019-05-29T03:04:05.729Z,96867.55
2019-05-29T03:05:10.251Z,96868.33
2019-05-29T03:06:13.913Z,96871.02
2019-05-29T03:07:18.153Z,96872.97
2019-05-29T03:08:24.391Z,96879.41
2019-05-29T03:09:28.672Z,96873.20
2019-05-29T03:10:33.160Z,96879.62
2019-05-29T03:11:37.457Z,96873.97
2019-05-29T03:12:41.671Z,96868.34
2019-05-29T03:13:46.357Z,96875.91
2019-05-29T03:14:56.403Z,96877.67
2019-05-29T03:17:25.658Z,96870.84
2019-05-29T03:18:30.378Z,96872.42
2019-05-29T03:19:35.376Z,96878.82
2019-05-29T03:20:39.599Z,96878.44
2019-05-29T03:21:43.263Z,96878.83
2019-05-29T03:22:47.487Z,96876.30
2019-05-29T03:23:51.127Z,96885.05
2019-05-29T03:24:55.413Z,96888.55
2019-05-29T03:25:59.357Z,96884.46
2019-05-29T03:27:03.585Z,96888.55
2019-05-29T03:28:07.243Z,96887.38
2019-05-29T03:29:11.475Z,96890.88
2019-05-29T03:30:15.520Z,96893.59
2019-05-29T03:31:19.743Z,96894.95
2019-05-29T03:32:23.725Z,96889.89
2019-05-29T03:33:32.453Z,96897.09
2019-05-29T03:34:39.563Z,96900.59
2019-05-29T03:35:46.733Z,96896.70
2019-05-29T03:36:48.355Z,96895.14
2019-05-29T03:37:50.503Z,96899.42
2019-05-29T03:38:54.210Z,96901.76
2019-05-29T03:39:58.415Z,96900.40
2019-05-29T03:41:02.095Z,96896.88
2019-05-29T03:42:06.334Z,96904.47
2019-05-29T03:43:10.332Z,96898.64
2019-05-29T03:44:14.602Z,96902.89
2019-05-29T03:45:18.254Z,96901.93
2019-05-29T03:46:31.502Z,96898.03
2019-05-29T03:47:28.758Z,96904.26
2019-05-29T03:48:34.419Z,96900.97
2019-05-29T03:49:38.227Z,96904.86
2019-05-29T03:50:42.568Z,96907.58
2019-05-29T03:51:46.232Z,96909.50
2019-05-29T03:52:50.878Z,96913.78
2019-05-29T03:53:54.526Z,96909.50
2019-05-29T03:54:58.807Z,96909.13
2019-05-29T03:56:02.439Z,96912.82
2019-05-29T03:57:06.660Z,96909.70
2019-05-29T03:58:10.315Z,96904.82
2019-05-29T03:59:14.535Z,96912.80
2019-05-29T04:00:18.699Z,96908.14
2019-05-29T04:01:22.922Z,96909.89
2019-05-29T04:02:26.785Z,96914.35
2019-05-29T04:03:31.156Z,96914.16
2019-05-29T04:04:36.183Z,96911.06
2019-05-29T04:05:41.331Z,96911.06
2019-05-29T04:06:47.368Z,96906.19
2019-05-29T04:07:50.865Z,96913.38
2019-05-29T04:08:54.729Z,96907.94
2019-05-29T04:09:58.964Z,96910.66
2019-05-29T04:11:02.877Z,96912.80
2019-05-29T04:12:07.121Z,96908.31
2019-05-29T04:13:10.855Z,96916.48
2019-05-29T04:14:15.772Z,96914.13
2019-05-29T04:15:19.519Z,96914.15
2019-05-29T04:16:25.102Z,96917.23
2019-05-29T04:17:31.966Z,96917.42
2019-05-29T04:18:38.192Z,96911.77
2019-05-29T04:19:43.441Z,96918.01
2019-05-29T04:20:49.593Z,96923.63
2019-05-29T04:21:56.171Z,96922.48
2019-05-29T04:23:02.549Z,96917.81
2019-05-29T04:24:07.771Z,96919.95
2019-05-29T04:25:12.194Z,96920.92
2019-05-29T04:26:18.191Z,96921.12
2019-05-29T04:27:25.419Z,96917.23
2019-05-29T04:28:30.350Z,96926.77
2019-05-29T04:29:36.123Z,96930.05
2019-05-29T04:30:39.903Z,96926.55
2019-05-29T04:31:44.133Z,96929.87
2019-05-29T04:32:47.815Z,96932.02
2019-05-29T04:33:51.983Z,96931.23
2019-05-29T04:34:55.626Z,96934.73
2019-05-29T04:35:59.845Z,96936.68
2019-05-29T04:37:07.191Z,96929.86
2019-05-29T04:38:09.387Z,96932.77
2019-05-29T04:39:13.072Z,96934.72
2019-05-29T04:40:17.288Z,96932.41
2019-05-29T04:41:20.951Z,96939.62
2019-05-29T04:42:25.343Z,96937.26
2019-05-29T04:43:30.893Z,96937.45
2019-05-29T04:44:36.232Z,96938.23
2019-05-29T04:45:40.394Z,96935.50
2019-05-29T04:46:44.655Z,96936.49
2019-05-29T04:47:48.294Z,96950.28
2019-05-29T04:48:52.602Z,96946.20
2019-05-29T04:49:56.243Z,96939.58
2019-05-29T04:51:00.446Z,96937.66
2019-05-29T04:52:04.078Z,96940.97
2019-05-29T04:53:08.299Z,96935.48
2019-05-29T04:54:11.889Z,96935.89
2019-05-29T04:55:16.096Z,96938.05
2019-05-29T04:56:19.784Z,96943.30
2019-05-29T04:57:24.027Z,96939.80
2019-05-29T04:58:28.776Z,96942.91
2019-05-29T04:59:33.127Z,96945.83
2019-05-29T05:00:37.254Z,96949.91
2019-05-29T05:01:41.573Z,96953.03
2019-05-29T05:02:45.229Z,96951.06
2019-05-29T05:03:49.534Z,96952.24
2019-05-29T05:04:53.170Z,96952.41
2019-05-29T05:05:57.397Z,96948.70
2019-05-29T05:07:01.027Z,96948.70
2019-05-29T05:08:05.241Z,96955.75
2019-05-29T05:09:08.964Z,96953.20
2019-05-29T05:10:13.401Z,96955.14
2019-05-29T05:11:17.134Z,96954.55
2019-05-29T05:12:21.690Z,96953.98
2019-05-29T05:13:25.689Z,96956.55
2019-05-29T05:14:29.918Z,96962.93
2019-05-29T05:15:35.963Z,96960.80
2019-05-29T05:16:40.243Z,96956.55
2019-05-29T05:17:43.975Z,96952.23
2019-05-29T05:18:48.591Z,96948.34
2019-05-29T05:19:52.240Z,96953.02
2019-05-29T05:20:56.477Z,96952.62
2019-05-29T05:22:00.040Z,96950.30
2019-05-29T05:23:04.789Z,96954.80
2019-05-29T05:24:08.450Z,96951.88
2019-05-29T05:25:12.658Z,96951.52
2019-05-29T05:26:16.332Z,96954.03
2019-05-29T05:27:20.572Z,96957.33
2019-05-29T05:28:24.276Z,96954.80
2019-05-29T05:29:28.424Z,96961.23
2019-05-29T05:30:32.418Z,96958.08
2019-05-29T05:31:36.759Z,96955.77
2019-05-29T05:32:41.092Z,96962.38
2019-05-29T05:33:45.690Z,96959.69
2019-05-29T05:34:49.342Z,96964.72
2019-05-29T05:35:53.588Z,96967.66
2019-05-29T05:36:57.208Z,96963.36
2019-05-29T05:38:01.820Z,96967.84
2019-05-29T05:39:09.077Z,96963.95
2019-05-29T05:40:13.890Z,96965.50
2019-05-29T05:41:17.921Z,96965.31
2019-05-29T05:42:22.167Z,96971.72
2019-05-29T05:43:25.884Z,96971.70
2019-05-29T05:44:30.766Z,96970.13
2019-05-29T05:45:39.250Z,96967.23
2019-05-29T05:46:48.988Z,96971.48
2019-05-29T05:47:57.383Z,96968.91
2019-05-29T05:48:58.705Z,96983.51
2019-05-29T05:50:02.373Z,96973.99
2019-05-29T05:51:07.853Z,96968.95
2019-05-29T05:52:11.611Z,96966.97
2019-05-29T05:53:15.845Z,96967.09
2019-05-29T05:54:19.481Z,96966.44
2019-05-29T05:55:23.731Z,96973.96
2019-05-29T05:56:33.587Z,96970.43
2019-05-29T05:57:37.985Z,96973.13
2019-05-29T05:58:42.185Z,96976.77
2019-05-29T05:59:46.818Z,96977.65
2019-05-29T06:00:50.486Z,96973.75
2019-05-29T06:01:56.058Z,96975.23
2019-05-29T06:02:59.875Z,96972.34
2019-05-29T06:04:04.088Z,96975.63
2019-05-29T06:05:08.040Z,96975.09
2019-05-29T06:06:12.483Z,96970.73
2019-05-29T06:07:16.140Z,96974.40
2019-05-29T06:08:22.944Z,96978.41
2019-05-29T06:09:26.668Z,96978.50
2019-05-29T06:10:31.987Z,96975.05
2019-05-29T06:11:38.331Z,96976.99
2019-05-29T06:12:45.772Z,96973.09
2019-05-29T06:13:49.811Z,96972.22
2019-05-29T06:14:54.024Z,96973.56
2019-05-29T06:15:57.688Z,96973.85
2019-05-29T06:17:01.828Z,96975.55
2019-05-29T06:18:20.703Z,96974.09
2019-05-29T06:19:11.450Z,96974.00
2019-05-29T06:20:15.323Z,96965.27
2019-05-29T06:21:19.560Z,96964.89
2019-05-29T06:22:23.121Z,96969.95
2019-05-29T06:23:27.281Z,96964.44
2019-05-29T06:24:30.910Z,96964.48
2019-05-29T06:25:36.863Z,96961.34
2019-05-29T06:26:41.050Z,96966.71
2019-05-29T06:27:45.347Z,96965.21
2019-05-29T06:28:49.047Z,96963.70
2019-05-29T06:29:53.256Z,96964.55
2019-05-29T06:30:57.006Z,96963.03
2019-05-29T06:32:01.228Z,96963.16
2019-05-29T06:33:04.877Z,96962.88
2019-05-29T06:34:09.091Z,96961.79
2019-05-29T06:35:13.898Z,96962.04
2019-05-29T06:36:18.183Z,96962.91
2019-05-29T06:37:21.914Z,96971.19
2019-05-29T06:38:27.631Z,96968.98
2019-05-29T06:39:33.621Z,96963.94
2019-05-29T06:40:42.151Z,96972.77
2019-05-29T06:41:45.912Z,96973.80
2019-05-29T06:42:54.470Z,96973.55
2019-05-29T06:43:59.564Z,96970.22
2019-05-29T06:45:04.217Z,96973.98
2019-05-29T06:46:10.706Z,96972.34
2019-05-29T06:47:15.033Z,96969.59
2019-05-29T06:48:41.916Z,96968.53
2019-05-29T06:49:33.898Z,96972.30
2019-05-29T06:50:39.231Z,96968.09
2019-05-29T06:51:43.561Z,96967.98
2019-05-29T06:52:47.744Z,96973.88
2019-05-29T06:53:52.074Z,96972.38
2019-05-29T06:54:55.653Z,96967.19
2019-05-29T06:56:01.544Z,96968.41
2019-05-29T06:57:06.954Z,96971.03
2019-05-29T06:58:11.154Z,96968.11
2019-05-29T06:59:14.862Z,96974.59
2019-05-29T07:00:34.453Z,96975.00
2019-05-29T07:01:25.035Z,96971.14
2019-05-29T07:02:31.762Z,96972.36
2019-05-29T07:03:35.594Z,96973.13
2019-05-29T07:04:42.794Z,96972.17
2019-05-29T07:05:51.315Z,96974.38
2019-05-29T07:06:53.876Z,96973.14
2019-05-29T07:08:13.384Z,96977.31
2019-05-29T07:09:03.503Z,96976.35
2019-05-29T07:10:08.219Z,96978.23
2019-05-29T07:11:12.392Z,96980.61
2019-05-29T07:12:16.051Z,96978.00
2019-05-29T07:13:20.265Z,96976.17
2019-05-29T07:14:25.342Z,96975.26
2019-05-29T07:15:30.592Z,96969.38
2019-05-29T07:16:45.297Z,96968.70
2019-05-29T07:17:42.566Z,96967.33
2019-05-29T07:19:22.916Z,96967.87
2019-05-29T07:20:02.912Z,96960.86
2019-05-29T07:20:57.592Z,96961.73
2019-05-29T07:22:03.400Z,96963.76
2019-05-29T07:23:07.055Z,96966.23
2019-05-29T07:24:12.743Z,96963.16
2019-05-29T07:25:16.370Z,96961.08
2019-05-29T07:26:22.041Z,96956.80
2019-05-29T07:27:25.705Z,96961.97
2019-05-29T07:28:30.004Z,96951.83
2019-05-29T07:29:33.964Z,96950.98
2019-05-29T07:30:42.718Z,96962.38
2019-05-29T07:31:45.317Z,96958.86
2019-05-29T07:32:56.942Z,96958.48
2019-05-29T07:33:54.900Z,96955.69
2019-05-29T07:35:03.554Z,96954.26
2019-05-29T07:36:06.534Z,96956.11
2019-05-29T07:37:12.259Z,96959.16
2019-05-29T07:38:15.943Z,96962.69
2019-05-29T07:39:20.176Z,96958.17
2019-05-29T07:40:23.820Z,96962.09
2019-05-29T07:41:30.933Z,96961.96
2019-05-29T07:42:34.584Z,96961.21
2019-05-29T07:43:39.675Z,96960.87
2019-05-29T07:44:44.039Z,96962.97
2019-05-29T07:45:48.737Z,96958.97
2019-05-29T07:46:52.431Z,96962.09
2019-05-29T07:47:56.707Z,96960.80
2019-05-29T07:49:00.769Z,96960.95
2019-05-29T07:50:06.784Z,96957.35
2019-05-29T07:51:10.433Z,96954.30
2019-05-29T07:52:14.736Z,96958.59
2019-05-29T07:53:18.793Z,96952.55
2019-05-29T07:54:23.039Z,96953.55
2019-05-29T07:55:26.750Z,96946.06
2019-05-29T07:56:31.299Z,96951.34
2019-05-29T07:57:35.376Z,96952.37
2019-05-29T07:58:42.222Z,96953.69
2019-05-29T07:59:46.791Z,96951.97
2019-05-29T08:01:09.353Z,96950.45
2019-05-29T08:01:56.456Z,96949.44
2019-05-29T08:03:00.853Z,96955.95
2019-05-29T08:04:04.494Z,96950.30
2019-05-29T08:05:09.536Z,96946.38
2019-05-29T08:06:13.545Z,96952.73
2019-05-29T08:07:17.764Z,96951.47
2019-05-29T08:08:21.413Z,96951.91
2019-05-29T08:09:25.627Z,96951.23
2019-05-29T08:10:29.324Z,96949.41
2019-05-29T08:11:36.465Z,96952.23
2019-05-29T08:12:44.445Z,96948.20
2019-05-29T08:13:46.038Z,96953.72
2019-05-29T08:14:50.335Z,96953.96
2019-05-29T08:16:02.638Z,96951.08
2019-05-29T08:17:00.512Z,96953.78
2019-05-29T08:18:04.808Z,96952.85
2019-05-29T08:19:08.440Z,96954.02
2019-05-29T08:20:13.163Z,96954.88
2019-05-29T08:21:17.236Z,96950.58
2019-05-29T08:22:33.936Z,96950.73
2019-05-29T08:23:26.947Z,96955.97
2019-05-29T08:24:31.150Z,96948.69
2019-05-29T08:25:34.780Z,96950.62
2019-05-29T08:26:38.944Z,96944.68
2019-05-29T08:27:42.704Z,96948.55
2019-05-29T08:28:46.966Z,96951.19
2019-05-29T08:29:51.167Z,96948.47
2019-05-29T08:30:56.591Z,96954.84
2019-05-29T08:32:00.741Z,96951.84
2019-05-29T08:33:04.967Z,96948.61
2019-05-29T08:34:08.601Z,96961.23
2019-05-29T08:35:13.349Z,96958.18
2019-05-29T08:36:16.989Z,96951.73
2019-05-29T08:37:21.289Z,96947.61
2019-05-29T08:38:24.857Z,96946.63
2019-05-29T08:39:35.885Z,96948.15
2019-05-29T08:40:34.415Z,96955.61
2019-05-29T08:41:39.206Z,96946.67
2019-05-29T08:42:43.233Z,96953.59
2019-05-29T08:43:48.696Z,96953.58
2019-05-29T08:44:52.343Z,96949.80
2019-05-29T08:45:56.917Z,96947.86
2019-05-29T08:47:09.568Z,96951.73
2019-05-29T08:48:06.616Z,96947.52
2019-05-29T08:49:10.265Z,96945.02
2019-05-29T08:50:18.624Z,96951.00
2019-05-29T08:51:20.432Z,96950.34
2019-05-29T08:52:24.653Z,96949.52
2019-05-29T08:53:28.336Z,96943.98
2019-05-29T08:54:32.486Z,96948.17
2019-05-29T08:55:36.151Z,96953.41
2019-05-29T08:56:40.438Z,96943.70
2019-05-29T08:57:44.321Z,96954.69
2019-05-29T08:58:48.647Z,96947.97
2019-05-29T08:59:52.680Z,96955.65
2019-05-29T09:00:57.363Z,96950.35
2019-05-29T09:02:01.091Z,96949.86
2019-05-29T09:03:05.718Z,96946.98
2019-05-29T09:04:09.402Z,96949.73
2019-05-29T09:05:13.715Z,96941.53
2019-05-29T09:06:17.795Z,96943.89
2019-05-29T09:07:22.360Z,96956.33
2019-05-29T09:08:25.985Z,96946.80
2019-05-29T09:09:30.182Z,96944.66
2019-05-29T09:10:33.831Z,96942.42
2019-05-29T09:11:38.083Z,96941.82
2019-05-29T09:12:46.171Z,96940.83
2019-05-29T09:13:48.062Z,96943.06
2019-05-29T09:14:51.711Z,96942.53
2019-05-29T09:15:55.923Z,96935.38
2019-05-29T09:16:59.587Z,96937.50
2019-05-29T09:18:04.194Z,96935.14
2019-05-29T09:19:07.853Z,96937.11
2019-05-29T09:20:28.386Z,96947.67
2019-05-29T09:21:19.075Z,96936.31
2019-05-29T09:22:23.403Z,96938.13
2019-05-29T09:23:27.067Z,96938.80
2019-05-29T09:24:31.817Z,96931.20
2019-05-29T09:25:35.496Z,96940.31
2019-05-29T09:26:40.021Z,96936.27
2019-05-29T09:27:43.655Z,96933.48
2019-05-29T09:28:48.012Z,96934.28
2019-05-29T09:29:52.038Z,96935.92
2019-05-29T09:30:56.257Z,96932.48
2019-05-29T09:31:59.914Z,96937.66
2019-05-29T09:33:04.203Z,96933.00
2019-05-29T09:34:07.751Z,96932.42
2019-05-29T09:35:12.492Z,96929.95
2019-05-29T09:36:17.163Z,96932.80
2019-05-29T09:37:22.442Z,96931.95
2019-05-29T09:38:26.280Z,96935.30
2019-05-29T09:39:30.527Z,96930.13
2019-05-29T09:40:34.164Z,96934.17
2019-05-29T09:41:38.379Z,96938.44
2019-05-29T09:42:42.043Z,96932.59
2019-05-29T09:43:58.426Z,96937.26
2019-05-29T09:44:51.620Z,96936.62
2019-05-29T09:45:55.933Z,96940.27
2019-05-29T09:47:00.489Z,96930.38
2019-05-29T09:48:05.145Z,96931.38
2019-05-29T09:49:08.784Z,96936.34
2019-05-29T09:50:13.310Z,96934.97
2019-05-29T09:51:21.380Z,96924.95
2019-05-29T09:52:23.361Z,96932.77
2019-05-29T09:53:27.406Z,96933.38
2019-05-29T09:54:31.732Z,96934.77
2019-05-29T09:55:35.401Z,96926.87
2019-05-29T09:56:39.651Z,96929.62
2019-05-29T09:57:43.332Z,96925.75
2019-05-29T09:58:47.703Z,96930.67
2019-05-29T09:59:53.826Z,96928.05
2019-05-29T10:01:16.186Z,96933.08
2019-05-29T10:02:05.872Z,96926.76
2019-05-29T10:03:08.743Z,96927.13
2019-05-29T10:04:12.376Z,96925.86
2019-05-29T10:05:16.709Z,96928.66
2019-05-29T10:06:20.340Z,96928.19
2019-05-29T10:07:24.555Z,96924.65
2019-05-29T10:08:28.206Z,96926.44
2019-05-29T10:09:32.419Z,96932.55
2019-05-29T10:10:36.074Z,96925.58
2019-05-29T10:11:40.309Z,96929.73
2019-05-29T10:12:43.933Z,96926.19
2019-05-29T10:13:48.130Z,96919.59
2019-05-29T10:14:51.667Z,96922.68
2019-05-29T10:15:57.223Z,96930.59
2019-05-29T10:17:05.890Z,96918.45
2019-05-29T10:18:18.204Z,96919.10
2019-05-29T10:19:12.855Z,96920.82
2019-05-29T10:20:17.858Z,96918.06
2019-05-29T10:21:38.633Z,96919.91
2019-05-29T10:22:29.223Z,96913.58
2019-05-29T10:23:32.938Z,96920.80
2019-05-29T10:24:37.513Z,96919.09
2019-05-29T10:25:41.202Z,96915.72
2019-05-29T10:26:45.345Z,96917.27
2019-05-29T10:27:49.017Z,96916.33
2019-05-29T10:29:58.653Z,96916.00
2019-05-29T10:32:08.379Z,96914.41
2019-05-29T10:32:52.797Z,96921.54
2019-05-29T10:33:12.611Z,96914.34
2019-05-29T10:34:16.455Z,96914.94
2019-05-29T10:34:38.779Z,96914.00
2019-05-29T10:35:21.082Z,96915.05
2019-05-29T10:36:24.795Z,96918.11
2019-05-29T10:37:28.997Z,96914.06
2019-05-29T10:38:32.660Z,96915.68
2019-05-29T10:39:36.860Z,96915.55
2019-05-29T10:40:40.530Z,96919.05
2019-05-29T10:41:44.789Z,96914.02
2019-05-29T10:42:49.073Z,96918.64
2019-05-29T10:43:53.468Z,96917.73
2019-05-29T10:44:57.157Z,96918.83
2019-05-29T10:46:01.389Z,96919.59
2019-05-29T10:47:05.280Z,96923.73
2019-05-29T10:48:09.867Z,96919.42
2019-05-29T10:49:13.864Z,96928.19
2019-05-29T10:50:18.500Z,96923.43
2019-05-29T10:51:22.174Z,96918.36
2019-05-29T10:52:26.428Z,96921.12
2019-05-29T10:53:30.081Z,96920.19
2019-05-29T10:54:34.305Z,96922.66
2019-05-29T10:55:38.243Z,96920.34
2019-05-29T10:56:42.465Z,96917.58
2019-05-29T10:57:46.666Z,96914.66
2019-05-29T10:58:56.483Z,96921.09
2019-05-29T10:59:58.314Z,96912.80
2019-05-29T11:01:02.917Z,96916.94
2019-05-29T11:02:06.638Z,96919.38
2019-05-29T11:03:11.285Z,96914.01
2019-05-29T11:04:14.931Z,96916.45
2019-05-29T11:05:19.370Z,96919.88
2019-05-29T11:06:23.162Z,96918.64
2019-05-29T11:07:27.382Z,96912.66
2019-05-29T11:08:31.064Z,96913.52
2019-05-29T11:09:44.334Z,96914.05
2019-05-29T11:10:40.518Z,96912.45
2019-05-29T11:11:45.951Z,96908.84
2019-05-29T11:12:50.622Z,96905.50
2019-05-29T11:13:55.247Z,96910.15
2019-05-29T11:14:59.021Z,96902.80
2019-05-29T11:16:03.236Z,96915.76
2019-05-29T11:17:06.892Z,96904.80
2019-05-29T11:18:11.104Z,96909.73
2019-05-29T11:19:14.921Z,96900.66
2019-05-29T11:20:19.951Z,96903.41
2019-05-29T11:21:23.584Z,96901.66
2019-05-29T11:22:27.802Z,96901.10
2019-05-29T11:23:31.486Z,96912.20
2019-05-29T11:24:35.766Z,96906.67
2019-05-29T11:25:39.394Z,96904.83
2019-05-29T11:26:43.634Z,96912.49
2019-05-29T11:27:48.485Z,96914.93
2019-05-29T11:28:52.745Z,96918.02
2019-05-29T11:29:57.107Z,96915.22
2019-05-29T11:31:06.169Z,96922.97
2019-05-29T11:32:07.091Z,96914.50
2019-05-29T11:33:11.321Z,96920.00
2019-05-29T11:34:15.052Z,96913.33
2019-05-29T11:35:19.305Z,96917.80
2019-05-29T11:36:22.944Z,96912.47
2019-05-29T11:37:27.170Z,96915.06
2019-05-29T11:38:30.818Z,96915.27
2019-05-29T11:39:35.011Z,96915.06
2019-05-29T11:40:38.764Z,96914.27
2019-05-29T11:41:43.094Z,96906.95
2019-05-29T11:42:46.719Z,96904.13
2019-05-29T11:43:50.950Z,96909.70
2019-05-29T11:44:55.291Z,96908.35
2019-05-29T11:45:59.915Z,96906.20
2019-05-29T11:47:03.561Z,96906.75
2019-05-29T11:48:08.074Z,96902.59
2019-05-29T11:49:11.744Z,96896.30
2019-05-29T11:50:19.847Z,96898.94
2019-05-29T11:51:22.116Z,96893.73
2019-05-29T11:52:41.645Z,96907.00
2019-05-29T11:53:32.175Z,96907.72
2019-05-29T11:54:36.422Z,96904.64
2019-05-29T11:55:40.073Z,96904.20
2019-05-29T11:56:44.311Z,96901.56
2019-05-29T11:57:47.948Z,96900.30
2019-05-29T11:58:52.752Z,96903.95
2019-05-29T12:00:00.173Z,96905.00
2019-05-29T12:01:02.827Z,96907.59
2019-05-29T12:02:06.578Z,96901.91
2019-05-29T12:03:13.765Z,96906.19
2019-05-29T12:04:25.886Z,96901.84
2019-05-29T12:05:23.756Z,96907.20
2019-05-29T12:06:27.407Z,96913.17
2019-05-29T12:07:31.972Z,96904.67
2019-05-29T12:08:35.905Z,96905.87
2019-05-29T12:09:40.165Z,96899.75
2019-05-29T12:10:43.913Z,96899.58
2019-05-29T12:11:48.210Z,96898.60
2019-05-29T12:12:53.254Z,96899.86
2019-05-29T12:13:58.177Z,96894.57
2019-05-29T12:15:11.007Z,96893.84
2019-05-29T12:16:08.161Z,96889.69
2019-05-29T12:17:13.227Z,96896.59
2019-05-29T12:18:24.149Z,96895.52
2019-05-29T12:19:23.401Z,96892.30
2019-05-29T12:20:29.090Z,96895.55
2019-05-29T12:21:33.261Z,96894.33
2019-05-29T12:22:37.485Z,96892.01
2019-05-29T12:23:41.151Z,96892.91
2019-05-29T12:24:45.363Z,96896.11
2019-05-29T12:25:49.109Z,96892.72
2019-05-29T12:26:54.473Z,96890.86
2019-05-29T12:27:59.205Z,96891.03
2019-05-29T12:29:11.003Z,96892.89
2019-05-29T12:30:12.035Z,96894.40
2019-05-29T12:31:16.253Z,96893.52
2019-05-29T12:32:20.138Z,96891.27
2019-05-29T12:33:24.425Z,96887.60
2019-05-29T12:34:28.248Z,96882.67
2019-05-29T12:35:32.493Z,96884.52
2019-05-29T12:36:36.112Z,96889.13
2019-05-29T12:37:40.802Z,96886.48
2019-05-29T12:38:44.419Z,96885.68